Satanta, Kansas
Current Conditions -  °F | °C
As of 3:35 AM on Sunday 26 Oct 2014 (Local Time) from KLBL Reporting Station
Clear Clear  
Wind Chill: 61°   Ceiling: Unl
Heat Index: 61°   Visibility: 10mi
Dew Point: 46°   Wind: 14mph
Humidity: 59%   Direction: 170°S
Pressure: 29.88"   Gusts: NA
Location:  37.44°N, 100.97°W
Report Text: KLBL 260835Z AUTO 17012KT 10SM CLR 16/08 A2988 RMK AO1
Loading
Personal Weather Stations






























Interactive Weather Map
Tropical Storm Tracking
New forecast layout! Learn more

10-Day Weather Forecast

Advertisements
Track Severe Weather on mobile